sensor_id;sensor_type;location;lat;lon;timestamp;temperature;humidity
52941;DHT22;62001;53.366;6.636;2022-12-07T00:01:24;4.10;99.90
52941;DHT22;62001;53.366;6.636;2022-12-07T00:03:52;4.00;99.90
52941;DHT22;62001;53.366;6.636;2022-12-07T00:06:19;3.90;99.90
52941;DHT22;62001;53.366;6.636;2022-12-07T00:08:45;3.80;99.90
52941;DHT22;62001;53.366;6.636;2022-12-07T00:11:17;3.70;99.90
52941;DHT22;62001;53.366;6.636;2022-12-07T00:13:44;3.70;99.90
52941;DHT22;62001;53.366;6.636;2022-12-07T00:16:16;3.60;99.90
52941;DHT22;62001;53.366;6.636;2022-12-07T00:18:43;3.60;99.90
52941;DHT22;62001;53.366;6.636;2022-12-07T00:23:37;3.50;99.90
52941;DHT22;62001;53.366;6.636;2022-12-07T00:26:13;3.50;99.90
52941;DHT22;62001;53.366;6.636;2022-12-07T00:28:40;3.70;99.90
52941;DHT22;62001;53.366;6.636;2022-12-07T00:31:11;4.00;99.90
52941;DHT22;62001;53.366;6.636;2022-12-07T00:33:38;4.10;99.90
52941;DHT22;62001;53.366;6.636;2022-12-07T00:36:06;4.20;99.90
52941;DHT22;62001;53.366;6.636;2022-12-07T00:38:34;4.20;99.90
52941;DHT22;62001;53.366;6.636;2022-12-07T00:41:03;4.20;99.90
52941;DHT22;62001;53.366;6.636;2022-12-07T00:43:29;4.30;99.90
52941;DHT22;62001;53.366;6.636;2022-12-07T00:45:55;4.30;99.90
52941;DHT22;62001;53.366;6.636;2022-12-07T00:48:22;4.40;99.90
52941;DHT22;62001;53.366;6.636;2022-12-07T00:50:48;4.50;99.90
52941;DHT22;62001;53.366;6.636;2022-12-07T00:53:14;4.60;99.90
52941;DHT22;62001;53.366;6.636;2022-12-07T00:55:40;4.70;99.90
52941;DHT22;62001;53.366;6.636;2022-12-07T00:58:08;4.80;99.90
52941;DHT22;62001;53.366;6.636;2022-12-07T01:00:37;4.80;99.90
52941;DHT22;62001;53.366;6.636;2022-12-07T01:03:04;4.80;99.90
52941;DHT22;62001;53.366;6.636;2022-12-07T01:05:30;4.80;99.90
52941;DHT22;62001;53.366;6.636;2022-12-07T01:07:56;4.90;99.90
52941;DHT22;62001;53.366;6.636;2022-12-07T01:10:22;4.90;99.90
52941;DHT22;62001;53.366;6.636;2022-12-07T01:12:48;5.00;99.90
52941;DHT22;62001;53.366;6.636;2022-12-07T01:15:15;5.00;99.90
52941;DHT22;62001;53.366;6.636;2022-12-07T01:17:41;4.90;99.90
52941;DHT22;62001;53.366;6.636;2022-12-07T01:20:07;4.90;99.90
52941;DHT22;62001;53.366;6.636;2022-12-07T01:22:39;4.80;99.90
52941;DHT22;62001;53.366;6.636;2022-12-07T01:25:06;4.70;99.90
52941;DHT22;62001;53.366;6.636;2022-12-07T01:27:33;4.70;99.90
52941;DHT22;62001;53.366;6.636;2022-12-07T01:29:59;4.60;99.90
52941;DHT22;62001;53.366;6.636;2022-12-07T01:32:25;4.60;99.90
52941;DHT22;62001;53.366;6.636;2022-12-07T01:34:50;4.60;99.90
52941;DHT22;62001;53.366;6.636;2022-12-07T01:37:16;4.60;99.90
52941;DHT22;62001;53.366;6.636;2022-12-07T01:39:42;4.50;99.90
52941;DHT22;62001;53.366;6.636;2022-12-07T01:42:11;4.60;99.90
52941;DHT22;62001;53.366;6.636;2022-12-07T01:47:41;4.60;99.90
52941;DHT22;62001;53.366;6.636;2022-12-07T01:50:08;4.50;99.90
52941;DHT22;62001;53.366;6.636;2022-12-07T01:52:35;4.50;99.90
52941;DHT22;62001;53.366;6.636;2022-12-07T01:55:08;4.50;99.90
52941;DHT22;62001;53.366;6.636;2022-12-07T01:57:38;4.40;99.90
52941;DHT22;62001;53.366;6.636;2022-12-07T02:00:06;4.40;99.90
52941;DHT22;62001;53.366;6.636;2022-12-07T02:02:35;4.30;99.90
52941;DHT22;62001;53.366;6.636;2022-12-07T02:05:04;4.30;99.90
52941;DHT22;62001;53.366;6.636;2022-12-07T02:07:31;4.20;99.90
52941;DHT22;62001;53.366;6.636;2022-12-07T02:10:32;4.10;99.90
52941;DHT22;62001;53.366;6.636;2022-12-07T02:13:03;4.10;99.90
52941;DHT22;62001;53.366;6.636;2022-12-07T02:21:20;3.90;99.90
52941;DHT22;62001;53.366;6.636;2022-12-07T02:24:11;3.80;99.90
52941;DHT22;62001;53.366;6.636;2022-12-07T02:26:51;3.70;99.90
52941;DHT22;62001;53.366;6.636;2022-12-07T02:29:40;3.70;99.90
52941;DHT22;62001;53.366;6.636;2022-12-07T02:32:15;3.70;99.90
52941;DHT22;62001;53.366;6.636;2022-12-07T02:34:50;3.70;99.90
52941;DHT22;62001;53.366;6.636;2022-12-07T02:37:25;3.90;99.90
52941;DHT22;62001;53.366;6.636;2022-12-07T02:40:44;4.10;99.90
52941;DHT22;62001;53.366;6.636;2022-12-07T02:43:17;4.20;99.90
52941;DHT22;62001;53.366;6.636;2022-12-07T02:45:45;4.20;99.90
52941;DHT22;62001;53.366;6.636;2022-12-07T02:48:14;4.10;99.90
52941;DHT22;62001;53.366;6.636;2022-12-07T02:50:52;4.10;99.90
52941;DHT22;62001;53.366;6.636;2022-12-07T02:53:38;4.10;99.90
52941;DHT22;62001;53.366;6.636;2022-12-07T02:56:13;4.10;99.90
52941;DHT22;62001;53.366;6.636;2022-12-07T03:07:01;4.50;99.90
52941;DHT22;62001;53.366;6.636;2022-12-07T03:09:38;4.50;99.90
52941;DHT22;62001;53.366;6.636;2022-12-07T03:12:13;4.60;99.90
52941;DHT22;62001;53.366;6.636;2022-12-07T03:14:49;4.50;99.90
52941;DHT22;62001;53.366;6.636;2022-12-07T03:17:24;4.50;99.90
52941;DHT22;62001;53.366;6.636;2022-12-07T03:19:54;4.50;99.90
52941;DHT22;62001;53.366;6.636;2022-12-07T03:22:22;4.50;99.90
52941;DHT22;62001;53.366;6.636;2022-12-07T03:24:55;4.60;99.90
52941;DHT22;62001;53.366;6.636;2022-12-07T03:32:40;4.60;99.90
52941;DHT22;62001;53.366;6.636;2022-12-07T03:35:27;4.70;99.90
52941;DHT22;62001;53.366;6.636;2022-12-07T03:38:00;4.60;99.90
52941;DHT22;62001;53.366;6.636;2022-12-07T03:40:33;4.60;99.90
52941;DHT22;62001;53.366;6.636;2022-12-07T03:43:01;4.50;99.90
52941;DHT22;62001;53.366;6.636;2022-12-07T03:45:40;4.40;99.90
52941;DHT22;62001;53.366;6.636;2022-12-07T03:48:08;4.30;99.90
52941;DHT22;62001;53.366;6.636;2022-12-07T03:50:55;4.20;99.90
52941;DHT22;62001;53.366;6.636;2022-12-07T03:53:48;4.10;99.90
52941;DHT22;62001;53.366;6.636;2022-12-07T03:56:17;4.00;99.90
52941;DHT22;62001;53.366;6.636;2022-12-07T03:58:44;3.90;99.90
52941;DHT22;62001;53.366;6.636;2022-12-07T04:01:10;3.80;99.90
52941;DHT22;62001;53.366;6.636;2022-12-07T04:03:36;3.70;99.90
52941;DHT22;62001;53.366;6.636;2022-12-07T04:06:02;3.70;99.90
52941;DHT22;62001;53.366;6.636;2022-12-07T04:08:28;3.60;99.90
52941;DHT22;62001;53.366;6.636;2022-12-07T04:10:54;3.50;99.90
52941;DHT22;62001;53.366;6.636;2022-12-07T04:13:20;3.40;99.90
52941;DHT22;62001;53.366;6.636;2022-12-07T04:15:46;3.40;99.90
52941;DHT22;62001;53.366;6.636;2022-12-07T04:18:11;3.40;99.90
52941;DHT22;62001;53.366;6.636;2022-12-07T04:20:37;3.40;99.90
52941;DHT22;62001;53.366;6.636;2022-12-07T04:23:03;3.40;99.90
52941;DHT22;62001;53.366;6.636;2022-12-07T04:25:29;3.50;99.90
52941;DHT22;62001;53.366;6.636;2022-12-07T04:27:55;3.50;99.90
52941;DHT22;62001;53.366;6.636;2022-12-07T04:30:21;3.70;99.90
52941;DHT22;62001;53.366;6.636;2022-12-07T04:32:47;3.90;99.90
52941;DHT22;62001;53.366;6.636;2022-12-07T04:35:13;4.10;99.90
52941;DHT22;62001;53.366;6.636;2022-12-07T04:37:39;4.10;99.90
52941;DHT22;62001;53.366;6.636;2022-12-07T04:40:07;4.20;99.90
52941;DHT22;62001;53.366;6.636;2022-12-07T04:42:34;4.10;99.90
52941;DHT22;62001;53.366;6.636;2022-12-07T04:45:00;4.10;99.90
52941;DHT22;62001;53.366;6.636;2022-12-07T04:47:25;4.10;99.90
52941;DHT22;62001;53.366;6.636;2022-12-07T04:49:51;4.00;99.90
52941;DHT22;62001;53.366;6.636;2022-12-07T04:52:17;4.00;99.90
52941;DHT22;62001;53.366;6.636;2022-12-07T04:54:43;3.90;99.90
52941;DHT22;62001;53.366;6.636;2022-12-07T04:57:08;3.80;99.90
52941;DHT22;62001;53.366;6.636;2022-12-07T04:59:34;3.70;99.90
52941;DHT22;62001;53.366;6.636;2022-12-07T05:02:00;3.70;99.90
52941;DHT22;62001;53.366;6.636;2022-12-07T05:04:26;3.60;99.90
52941;DHT22;62001;53.366;6.636;2022-12-07T05:06:51;3.50;99.90
52941;DHT22;62001;53.366;6.636;2022-12-07T05:09:17;3.50;99.90
52941;DHT22;62001;53.366;6.636;2022-12-07T05:11:43;3.50;99.90
52941;DHT22;62001;53.366;6.636;2022-12-07T05:14:18;3.40;99.90
52941;DHT22;62001;53.366;6.636;2022-12-07T05:16:45;3.40;99.90
52941;DHT22;62001;53.366;6.636;2022-12-07T05:19:11;3.20;99.90
52941;DHT22;62001;53.366;6.636;2022-12-07T05:21:38;3.10;99.90
52941;DHT22;62001;53.366;6.636;2022-12-07T05:24:05;3.00;99.90
52941;DHT22;62001;53.366;6.636;2022-12-07T05:26:31;3.00;99.90
52941;DHT22;62001;53.366;6.636;2022-12-07T05:28:57;2.90;99.90
52941;DHT22;62001;53.366;6.636;2022-12-07T05:31:23;2.90;99.90
52941;DHT22;62001;53.366;6.636;2022-12-07T05:33:49;2.90;99.90
52941;DHT22;62001;53.366;6.636;2022-12-07T05:36:15;2.80;99.90
52941;DHT22;62001;53.366;6.636;2022-12-07T05:38:41;2.80;99.90
52941;DHT22;62001;53.366;6.636;2022-12-07T05:41:08;2.80;99.90
52941;DHT22;62001;53.366;6.636;2022-12-07T05:43:55;2.70;99.90
52941;DHT22;62001;53.366;6.636;2022-12-07T05:46:20;2.70;99.90
52941;DHT22;62001;53.366;6.636;2022-12-07T05:48:46;2.60;99.90
52941;DHT22;62001;53.366;6.636;2022-12-07T05:51:12;2.60;99.90
52941;DHT22;62001;53.366;6.636;2022-12-07T05:53:38;2.60;99.90
52941;DHT22;62001;53.366;6.636;2022-12-07T05:56:04;2.60;99.90
52941;DHT22;62001;53.366;6.636;2022-12-07T05:58:30;2.60;99.90
52941;DHT22;62001;53.366;6.636;2022-12-07T06:01:14;2.70;99.90
52941;DHT22;62001;53.366;6.636;2022-12-07T06:03:40;2.80;99.90
52941;DHT22;62001;53.366;6.636;2022-12-07T06:06:06;3.00;99.90
52941;DHT22;62001;53.366;6.636;2022-12-07T06:08:31;3.30;99.90
52941;DHT22;62001;53.366;6.636;2022-12-07T06:10:57;3.60;99.90
52941;DHT22;62001;53.366;6.636;2022-12-07T06:13:55;3.80;99.90
52941;DHT22;62001;53.366;6.636;2022-12-07T06:16:21;3.90;99.90
52941;DHT22;62001;53.366;6.636;2022-12-07T06:18:47;4.00;99.90
52941;DHT22;62001;53.366;6.636;2022-12-07T06:21:13;4.00;99.90
52941;DHT22;62001;53.366;6.636;2022-12-07T06:23:39;4.00;99.90
52941;DHT22;62001;53.366;6.636;2022-12-07T06:26:05;3.90;99.90
52941;DHT22;62001;53.366;6.636;2022-12-07T06:28:31;3.90;99.90
52941;DHT22;62001;53.366;6.636;2022-12-07T06:30:58;3.80;99.90
52941;DHT22;62001;53.366;6.636;2022-12-07T06:33:24;3.80;99.90
52941;DHT22;62001;53.366;6.636;2022-12-07T06:35:50;3.60;99.90
52941;DHT22;62001;53.366;6.636;2022-12-07T06:38:16;3.60;99.90
52941;DHT22;62001;53.366;6.636;2022-12-07T06:40:42;3.50;99.90
52941;DHT22;62001;53.366;6.636;2022-12-07T06:43:08;3.40;99.90
52941;DHT22;62001;53.366;6.636;2022-12-07T06:45:34;3.40;99.90
52941;DHT22;62001;53.366;6.636;2022-12-07T06:48:00;3.30;99.90
52941;DHT22;62001;53.366;6.636;2022-12-07T06:50:26;3.20;99.90
52941;DHT22;62001;53.366;6.636;2022-12-07T06:52:52;3.10;99.90
52941;DHT22;62001;53.366;6.636;2022-12-07T06:55:18;3.10;99.90
52941;DHT22;62001;53.366;6.636;2022-12-07T06:57:44;3.00;99.90
52941;DHT22;62001;53.366;6.636;2022-12-07T07:00:10;3.10;99.90
52941;DHT22;62001;53.366;6.636;2022-12-07T07:02:36;3.20;99.90
52941;DHT22;62001;53.366;6.636;2022-12-07T07:05:02;3.30;99.90
52941;DHT22;62001;53.366;6.636;2022-12-07T07:07:29;3.40;99.90
52941;DHT22;62001;53.366;6.636;2022-12-07T07:09:54;3.40;99.90
52941;DHT22;62001;53.366;6.636;2022-12-07T07:12:20;3.50;99.90
52941;DHT22;62001;53.366;6.636;2022-12-07T07:14:46;3.50;99.90
52941;DHT22;62001;53.366;6.636;2022-12-07T07:17:12;3.60;99.90
52941;DHT22;62001;53.366;6.636;2022-12-07T07:19:38;3.60;99.90
52941;DHT22;62001;53.366;6.636;2022-12-07T07:22:04;3.60;99.90
52941;DHT22;62001;53.366;6.636;2022-12-07T07:24:30;3.60;99.90
52941;DHT22;62001;53.366;6.636;2022-12-07T07:26:56;3.60;99.90
52941;DHT22;62001;53.366;6.636;2022-12-07T07:29:21;3.60;99.90
52941;DHT22;62001;53.366;6.636;2022-12-07T07:31:47;3.60;99.90
52941;DHT22;62001;53.366;6.636;2022-12-07T07:34:13;3.70;99.90
52941;DHT22;62001;53.366;6.636;2022-12-07T07:36:39;3.80;99.90
52941;DHT22;62001;53.366;6.636;2022-12-07T07:39:05;3.80;99.90
52941;DHT22;62001;53.366;6.636;2022-12-07T07:41:31;3.80;99.90
52941;DHT22;62001;53.366;6.636;2022-12-07T07:43:57;3.80;99.90
52941;DHT22;62001;53.366;6.636;2022-12-07T07:46:23;3.80;99.90
52941;DHT22;62001;53.366;6.636;2022-12-07T07:48:49;3.80;99.90
52941;DHT22;62001;53.366;6.636;2022-12-07T07:51:14;3.90;99.90
52941;DHT22;62001;53.366;6.636;2022-12-07T07:53:40;3.90;99.90
52941;DHT22;62001;53.366;6.636;2022-12-07T07:56:06;4.00;99.90
52941;DHT22;62001;53.366;6.636;2022-12-07T07:58:32;4.00;99.90
52941;DHT22;62001;53.366;6.636;2022-12-07T08:01:04;4.00;99.90
52941;DHT22;62001;53.366;6.636;2022-12-07T08:03:30;4.00;99.90
52941;DHT22;62001;53.366;6.636;2022-12-07T08:05:55;3.90;99.90
52941;DHT22;62001;53.366;6.636;2022-12-07T08:08:21;3.90;99.90
52941;DHT22;62001;53.366;6.636;2022-12-07T08:10:47;4.00;99.90
52941;DHT22;62001;53.366;6.636;2022-12-07T08:13:15;4.00;99.90
52941;DHT22;62001;53.366;6.636;2022-12-07T08:15:44;4.00;99.90
52941;DHT22;62001;53.366;6.636;2022-12-07T08:18:11;4.10;99.90
52941;DHT22;62001;53.366;6.636;2022-12-07T08:20:38;4.10;99.90
52941;DHT22;62001;53.366;6.636;2022-12-07T08:23:04;4.10;99.90
52941;DHT22;62001;53.366;6.636;2022-12-07T08:25:31;4.20;99.90
52941;DHT22;62001;53.366;6.636;2022-12-07T08:27:58;4.40;99.90
52941;DHT22;62001;53.366;6.636;2022-12-07T08:30:24;4.50;99.90
52941;DHT22;62001;53.366;6.636;2022-12-07T08:32:50;4.50;99.90
52941;DHT22;62001;53.366;6.636;2022-12-07T08:35:16;4.40;99.90
52941;DHT22;62001;53.366;6.636;2022-12-07T08:37:42;4.40;99.90
52941;DHT22;62001;53.366;6.636;2022-12-07T08:40:09;4.40;99.90
52941;DHT22;62001;53.366;6.636;2022-12-07T08:42:35;4.50;99.90
52941;DHT22;62001;53.366;6.636;2022-12-07T08:45:12;4.60;99.90
52941;DHT22;62001;53.366;6.636;2022-12-07T08:47:52;4.90;99.90
52941;DHT22;62001;53.366;6.636;2022-12-07T08:50:20;5.10;99.90
52941;DHT22;62001;53.366;6.636;2022-12-07T08:52:53;5.20;99.90
52941;DHT22;62001;53.366;6.636;2022-12-07T08:55:19;5.30;99.90
52941;DHT22;62001;53.366;6.636;2022-12-07T08:57:46;5.30;99.90
52941;DHT22;62001;53.366;6.636;2022-12-07T09:00:12;5.30;99.90
52941;DHT22;62001;53.366;6.636;2022-12-07T09:02:38;5.40;99.90
52941;DHT22;62001;53.366;6.636;2022-12-07T09:05:04;5.50;99.90
52941;DHT22;62001;53.366;6.636;2022-12-07T09:07:32;5.70;99.90
52941;DHT22;62001;53.366;6.636;2022-12-07T09:09:59;5.90;99.90
52941;DHT22;62001;53.366;6.636;2022-12-07T09:12:25;6.10;99.90
52941;DHT22;62001;53.366;6.636;2022-12-07T09:14:51;6.20;99.90
52941;DHT22;62001;53.366;6.636;2022-12-07T09:17:17;6.40;99.90
52941;DHT22;62001;53.366;6.636;2022-12-07T09:19:42;6.70;99.90
52941;DHT22;62001;53.366;6.636;2022-12-07T09:22:08;7.00;99.90
52941;DHT22;62001;53.366;6.636;2022-12-07T09:24:34;7.20;99.90
52941;DHT22;62001;53.366;6.636;2022-12-07T09:27:00;7.20;99.90
52941;DHT22;62001;53.366;6.636;2022-12-07T09:29:26;7.00;99.90
52941;DHT22;62001;53.366;6.636;2022-12-07T09:31:52;6.80;99.90
52941;DHT22;62001;53.366;6.636;2022-12-07T09:34:18;6.70;99.90
52941;DHT22;62001;53.366;6.636;2022-12-07T09:36:44;6.70;99.90
52941;DHT22;62001;53.366;6.636;2022-12-07T09:39:10;6.90;99.90
52941;DHT22;62001;53.366;6.636;2022-12-07T09:41:41;6.90;99.90
52941;DHT22;62001;53.366;6.636;2022-12-07T09:44:14;6.70;99.90
52941;DHT22;62001;53.366;6.636;2022-12-07T09:46:43;6.50;99.90
52941;DHT22;62001;53.366;6.636;2022-12-07T09:49:18;6.50;99.90
52941;DHT22;62001;53.366;6.636;2022-12-07T09:51:45;6.60;99.90
52941;DHT22;62001;53.366;6.636;2022-12-07T09:54:16;6.60;99.90
52941;DHT22;62001;53.366;6.636;2022-12-07T09:56:43;6.70;99.90
52941;DHT22;62001;53.366;6.636;2022-12-07T09:59:13;6.80;99.90
52941;DHT22;62001;53.366;6.636;2022-12-07T10:01:48;6.80;99.90
52941;DHT22;62001;53.366;6.636;2022-12-07T10:04:19;6.70;99.90
52941;DHT22;62001;53.366;6.636;2022-12-07T10:06:47;6.90;99.90
52941;DHT22;62001;53.366;6.636;2022-12-07T10:09:15;7.00;99.90
52941;DHT22;62001;53.366;6.636;2022-12-07T10:14:33;7.10;99.90
52941;DHT22;62001;53.366;6.636;2022-12-07T10:16:59;7.00;99.90
52941;DHT22;62001;53.366;6.636;2022-12-07T10:19:28;6.90;99.90
52941;DHT22;62001;53.366;6.636;2022-12-07T10:22:13;6.80;99.90
52941;DHT22;62001;53.366;6.636;2022-12-07T10:24:41;6.70;99.90
52941;DHT22;62001;53.366;6.636;2022-12-07T10:29:49;6.60;99.90
52941;DHT22;62001;53.366;6.636;2022-12-07T10:34:42;6.50;99.90
52941;DHT22;62001;53.366;6.636;2022-12-07T10:37:19;6.40;99.90
52941;DHT22;62001;53.366;6.636;2022-12-07T10:39:50;6.40;99.90
52941;DHT22;62001;53.366;6.636;2022-12-07T10:45:03;6.40;99.90
52941;DHT22;62001;53.366;6.636;2022-12-07T10:47:33;6.30;99.90
52941;DHT22;62001;53.366;6.636;2022-12-07T11:07:10;5.90;99.90
52941;DHT22;62001;53.366;6.636;2022-12-07T11:17:45;5.90;99.90
52941;DHT22;62001;53.366;6.636;2022-12-07T11:26:12;6.20;99.90
52941;DHT22;62001;53.366;6.636;2022-12-07T11:34:10;6.90;99.90
52941;DHT22;62001;53.366;6.636;2022-12-07T11:36:44;7.20;99.90
52941;DHT22;62001;53.366;6.636;2022-12-07T11:41:48;7.20;99.90
52941;DHT22;62001;53.366;6.636;2022-12-07T11:44:52;7.10;99.90
52941;DHT22;62001;53.366;6.636;2022-12-07T11:47:26;7.00;99.90
52941;DHT22;62001;53.366;6.636;2022-12-07T11:55:52;6.90;99.90
52941;DHT22;62001;53.366;6.636;2022-12-07T11:58:22;6.80;99.90
52941;DHT22;62001;53.366;6.636;2022-12-07T12:01:01;6.70;99.90
52941;DHT22;62001;53.366;6.636;2022-12-07T12:03:34;6.60;99.90
52941;DHT22;62001;53.366;6.636;2022-12-07T12:06:01;6.60;99.90
52941;DHT22;62001;53.366;6.636;2022-12-07T12:08:38;6.60;99.90
52941;DHT22;62001;53.366;6.636;2022-12-07T12:19:15;6.70;99.90
52941;DHT22;62001;53.366;6.636;2022-12-07T12:21:43;6.70;99.90
52941;DHT22;62001;53.366;6.636;2022-12-07T12:24:21;6.80;99.90
52941;DHT22;62001;53.366;6.636;2022-12-07T12:27:02;6.80;99.90
52941;DHT22;62001;53.366;6.636;2022-12-07T12:29:41;6.90;99.90
52941;DHT22;62001;53.366;6.636;2022-12-07T12:32:17;6.90;99.90
52941;DHT22;62001;53.366;6.636;2022-12-07T12:34:59;7.00;99.90
52941;DHT22;62001;53.366;6.636;2022-12-07T12:42:45;7.00;99.90
52941;DHT22;62001;53.366;6.636;2022-12-07T12:45:32;6.90;99.90
52941;DHT22;62001;53.366;6.636;2022-12-07T12:48:26;6.90;99.90
52941;DHT22;62001;53.366;6.636;2022-12-07T12:54:04;6.80;99.90
52941;DHT22;62001;53.366;6.636;2022-12-07T12:56:46;6.80;99.90
52941;DHT22;62001;53.366;6.636;2022-12-07T12:59:30;6.70;99.90
52941;DHT22;62001;53.366;6.636;2022-12-07T13:02:21;6.70;99.90
52941;DHT22;62001;53.366;6.636;2022-12-07T13:15:51;6.40;99.90
52941;DHT22;62001;53.366;6.636;2022-12-07T13:26:23;5.90;99.90
52941;DHT22;62001;53.366;6.636;2022-12-07T13:37:10;5.60;99.90
52941;DHT22;62001;53.366;6.636;2022-12-07T13:39:47;5.60;99.90
52941;DHT22;62001;53.366;6.636;2022-12-07T13:42:27;5.50;99.90
52941;DHT22;62001;53.366;6.636;2022-12-07T13:44:54;5.40;99.90
52941;DHT22;62001;53.366;6.636;2022-12-07T13:47:36;5.40;99.90
52941;DHT22;62001;53.366;6.636;2022-12-07T13:50:24;5.30;99.90
52941;DHT22;62001;53.366;6.636;2022-12-07T13:52:50;5.30;99.90
52941;DHT22;62001;53.366;6.636;2022-12-07T13:55:20;5.20;99.90
52941;DHT22;62001;53.366;6.636;2022-12-07T13:57:50;5.20;99.90
52941;DHT22;62001;53.366;6.636;2022-12-07T14:00:26;5.10;99.90
52941;DHT22;62001;53.366;6.636;2022-12-07T14:02:58;5.20;99.90
52941;DHT22;62001;53.366;6.636;2022-12-07T14:05:30;5.10;99.90
52941;DHT22;62001;53.366;6.636;2022-12-07T14:10:58;4.90;99.90
52941;DHT22;62001;53.366;6.636;2022-12-07T14:13:34;4.90;99.90
52941;DHT22;62001;53.366;6.636;2022-12-07T14:16:13;4.80;99.90
52941;DHT22;62001;53.366;6.636;2022-12-07T14:18:42;4.70;99.90
52941;DHT22;62001;53.366;6.636;2022-12-07T14:21:18;4.70;99.90
52941;DHT22;62001;53.366;6.636;2022-12-07T14:23:44;4.70;99.90
52941;DHT22;62001;53.366;6.636;2022-12-07T14:28:42;4.80;99.90
52941;DHT22;62001;53.366;6.636;2022-12-07T14:31:21;4.70;99.90
52941;DHT22;62001;53.366;6.636;2022-12-07T14:33:49;4.70;99.90
52941;DHT22;62001;53.366;6.636;2022-12-07T14:36:15;4.70;99.90
52941;DHT22;62001;53.366;6.636;2022-12-07T14:38:41;4.70;99.90
52941;DHT22;62001;53.366;6.636;2022-12-07T14:41:14;4.60;99.90
52941;DHT22;62001;53.366;6.636;2022-12-07T14:44:00;4.60;99.90
52941;DHT22;62001;53.366;6.636;2022-12-07T14:46:26;4.50;99.90
52941;DHT22;62001;53.366;6.636;2022-12-07T14:48:51;4.40;99.90
52941;DHT22;62001;53.366;6.636;2022-12-07T14:51:17;4.40;99.90
52941;DHT22;62001;53.366;6.636;2022-12-07T14:53:48;4.40;99.90
52941;DHT22;62001;53.366;6.636;2022-12-07T14:56:14;4.40;99.90
52941;DHT22;62001;53.366;6.636;2022-12-07T14:58:43;4.40;99.90
52941;DHT22;62001;53.366;6.636;2022-12-07T15:01:10;4.40;99.90
52941;DHT22;62001;53.366;6.636;2022-12-07T15:03:40;4.30;99.90
52941;DHT22;62001;53.366;6.636;2022-12-07T15:06:14;4.30;99.90
52941;DHT22;62001;53.366;6.636;2022-12-07T15:08:40;4.20;99.90
52941;DHT22;62001;53.366;6.636;2022-12-07T15:11:06;4.10;99.90
52941;DHT22;62001;53.366;6.636;2022-12-07T15:13:31;3.90;99.90
52941;DHT22;62001;53.366;6.636;2022-12-07T15:16:19;3.80;99.90
52941;DHT22;62001;53.366;6.636;2022-12-07T15:18:46;3.70;99.90
52941;DHT22;62001;53.366;6.636;2022-12-07T15:21:15;3.60;99.90
52941;DHT22;62001;53.366;6.636;2022-12-07T15:23:42;3.60;99.90
52941;DHT22;62001;53.366;6.636;2022-12-07T15:26:10;3.50;99.90
52941;DHT22;62001;53.366;6.636;2022-12-07T15:28:36;3.50;99.90
52941;DHT22;62001;53.366;6.636;2022-12-07T15:31:02;3.50;99.90
52941;DHT22;62001;53.366;6.636;2022-12-07T15:33:28;3.50;99.90
52941;DHT22;62001;53.366;6.636;2022-12-07T15:35:53;3.50;99.90
52941;DHT22;62001;53.366;6.636;2022-12-07T15:38:19;3.50;99.90
52941;DHT22;62001;53.366;6.636;2022-12-07T15:40:48;3.50;99.90
52941;DHT22;62001;53.366;6.636;2022-12-07T15:43:14;3.50;99.90
52941;DHT22;62001;53.366;6.636;2022-12-07T15:45:58;3.50;99.90
52941;DHT22;62001;53.366;6.636;2022-12-07T15:48:25;3.50;99.90
52941;DHT22;62001;53.366;6.636;2022-12-07T15:50:51;3.50;99.90
52941;DHT22;62001;53.366;6.636;2022-12-07T15:53:17;3.60;99.90
52941;DHT22;62001;53.366;6.636;2022-12-07T15:55:43;3.50;99.90
52941;DHT22;62001;53.366;6.636;2022-12-07T15:58:09;3.50;99.90
52941;DHT22;62001;53.366;6.636;2022-12-07T16:00:34;3.50;99.90
52941;DHT22;62001;53.366;6.636;2022-12-07T16:03:00;3.40;99.90
52941;DHT22;62001;53.366;6.636;2022-12-07T16:05:26;3.40;99.90
52941;DHT22;62001;53.366;6.636;2022-12-07T16:07:52;3.40;99.90
52941;DHT22;62001;53.366;6.636;2022-12-07T16:10:17;3.30;99.90
52941;DHT22;62001;53.366;6.636;2022-12-07T16:12:43;3.30;99.90
52941;DHT22;62001;53.366;6.636;2022-12-07T16:15:09;3.30;99.90
52941;DHT22;62001;53.366;6.636;2022-12-07T16:17:35;3.30;99.90
52941;DHT22;62001;53.366;6.636;2022-12-07T16:20:01;3.30;99.90
52941;DHT22;62001;53.366;6.636;2022-12-07T16:22:27;3.30;99.90
52941;DHT22;62001;53.366;6.636;2022-12-07T16:24:52;3.20;99.90
52941;DHT22;62001;53.366;6.636;2022-12-07T16:27:18;3.20;99.90
52941;DHT22;62001;53.366;6.636;2022-12-07T16:29:44;3.20;99.90
52941;DHT22;62001;53.366;6.636;2022-12-07T16:32:10;3.10;99.90
52941;DHT22;62001;53.366;6.636;2022-12-07T16:34:36;3.10;99.90
52941;DHT22;62001;53.366;6.636;2022-12-07T16:37:02;3.00;99.90
52941;DHT22;62001;53.366;6.636;2022-12-07T16:39:28;3.00;99.90
52941;DHT22;62001;53.366;6.636;2022-12-07T16:41:53;2.90;99.90
52941;DHT22;62001;53.366;6.636;2022-12-07T16:44:19;2.90;99.90
52941;DHT22;62001;53.366;6.636;2022-12-07T16:46:45;2.80;99.90
52941;DHT22;62001;53.366;6.636;2022-12-07T16:49:13;2.80;99.90
52941;DHT22;62001;53.366;6.636;2022-12-07T16:51:39;2.80;99.90
52941;DHT22;62001;53.366;6.636;2022-12-07T16:54:04;2.70;99.90
52941;DHT22;62001;53.366;6.636;2022-12-07T16:56:30;2.70;99.90
52941;DHT22;62001;53.366;6.636;2022-12-07T16:58:59;2.70;99.90
52941;DHT22;62001;53.366;6.636;2022-12-07T17:01:25;2.70;99.90
52941;DHT22;62001;53.366;6.636;2022-12-07T17:03:53;2.70;99.90
52941;DHT22;62001;53.366;6.636;2022-12-07T17:06:24;2.70;99.90
52941;DHT22;62001;53.366;6.636;2022-12-07T17:08:51;2.70;99.90
52941;DHT22;62001;53.366;6.636;2022-12-07T17:11:19;2.70;99.90
52941;DHT22;62001;53.366;6.636;2022-12-07T17:13:45;2.80;99.90
52941;DHT22;62001;53.366;6.636;2022-12-07T17:16:30;2.80;99.90
52941;DHT22;62001;53.366;6.636;2022-12-07T17:18:56;2.80;99.90
52941;DHT22;62001;53.366;6.636;2022-12-07T17:21:22;2.80;99.90
52941;DHT22;62001;53.366;6.636;2022-12-07T17:23:49;2.80;99.90
52941;DHT22;62001;53.366;6.636;2022-12-07T17:26:23;2.80;99.90
52941;DHT22;62001;53.366;6.636;2022-12-07T17:28:49;2.90;99.90
52941;DHT22;62001;53.366;6.636;2022-12-07T17:31:17;2.90;99.90
52941;DHT22;62001;53.366;6.636;2022-12-07T17:33:44;2.80;99.90
52941;DHT22;62001;53.366;6.636;2022-12-07T17:36:29;2.80;99.90
52941;DHT22;62001;53.366;6.636;2022-12-07T17:38:56;2.80;99.90
52941;DHT22;62001;53.366;6.636;2022-12-07T17:41:27;2.70;99.90
52941;DHT22;62001;53.366;6.636;2022-12-07T17:44:16;2.70;99.90
52941;DHT22;62001;53.366;6.636;2022-12-07T17:46:44;2.70;99.90
52941;DHT22;62001;53.366;6.636;2022-12-07T17:49:11;2.70;99.90
52941;DHT22;62001;53.366;6.636;2022-12-07T17:51:37;2.70;99.90
52941;DHT22;62001;53.366;6.636;2022-12-07T17:54:22;2.70;99.90
52941;DHT22;62001;53.366;6.636;2022-12-07T17:56:48;2.70;99.90
52941;DHT22;62001;53.366;6.636;2022-12-07T17:59:14;2.70;99.90
52941;DHT22;62001;53.366;6.636;2022-12-07T18:01:40;2.80;99.90
52941;DHT22;62001;53.366;6.636;2022-12-07T18:04:06;2.80;99.90
52941;DHT22;62001;53.366;6.636;2022-12-07T18:06:33;2.80;99.90
52941;DHT22;62001;53.366;6.636;2022-12-07T18:08:59;2.80;99.90